sensor_id;sensor_type;location;lat;lon;timestamp;P1;durP1;ratioP1;P2;durP2;ratioP2
14681;SDS011;7429;52.498;13.480;2023-06-14T00:00:06;4.87;;;4.40;;
14681;SDS011;7429;52.498;13.480;2023-06-14T00:03:10;5.77;;;5.17;;
14681;SDS011;7429;52.498;13.480;2023-06-14T00:06:19;5.70;;;5.23;;
14681;SDS011;7429;52.498;13.480;2023-06-14T00:09:24;5.90;;;5.27;;
14681;SDS011;7429;52.498;13.480;2023-06-14T00:12:29;5.90;;;5.40;;
14681;SDS011;7429;52.498;13.480;2023-06-14T00:15:32;6.13;;;5.50;;
14681;SDS011;7429;52.498;13.480;2023-06-14T00:18:36;7.37;;;6.87;;
14681;SDS011;7429;52.498;13.480;2023-06-14T00:21:39;5.97;;;5.57;;
14681;SDS011;7429;52.498;13.480;2023-06-14T00:24:44;5.67;;;5.17;;
14681;SDS011;7429;52.498;13.480;2023-06-14T00:27:47;5.60;;;5.00;;
14681;SDS011;7429;52.498;13.480;2023-06-14T00:30:52;7.47;;;5.83;;
14681;SDS011;7429;52.498;13.480;2023-06-14T00:33:55;7.00;;;5.33;;
14681;SDS011;7429;52.498;13.480;2023-06-14T00:36:58;5.53;;;4.97;;
14681;SDS011;7429;52.498;13.480;2023-06-14T00:40:03;6.93;;;6.27;;
14681;SDS011;7429;52.498;13.480;2023-06-14T00:43:07;9.10;;;6.80;;
14681;SDS011;7429;52.498;13.480;2023-06-14T00:46:11;8.10;;;7.30;;
14681;SDS011;7429;52.498;13.480;2023-06-14T00:49:16;9.27;;;8.67;;
14681;SDS011;7429;52.498;13.480;2023-06-14T00:52:21;6.30;;;5.80;;
14681;SDS011;7429;52.498;13.480;2023-06-14T00:55:28;7.17;;;6.47;;
14681;SDS011;7429;52.498;13.480;2023-06-14T00:58:31;8.53;;;6.47;;
14681;SDS011;7429;52.498;13.480;2023-06-14T01:01:35;5.83;;;5.33;;
14681;SDS011;7429;52.498;13.480;2023-06-14T01:04:56;7.53;;;5.90;;
14681;SDS011;7429;52.498;13.480;2023-06-14T01:08:04;7.83;;;6.43;;
14681;SDS011;7429;52.498;13.480;2023-06-14T01:11:21;7.00;;;6.07;;
14681;SDS011;7429;52.498;13.480;2023-06-14T01:14:29;8.70;;;6.20;;
14681;SDS011;7429;52.498;13.480;2023-06-14T01:17:36;8.13;;;6.77;;
14681;SDS011;7429;52.498;13.480;2023-06-14T01:20:43;7.13;;;6.50;;
14681;SDS011;7429;52.498;13.480;2023-06-14T01:23:52;6.63;;;6.13;;
14681;SDS011;7429;52.498;13.480;2023-06-14T01:26:57;7.70;;;6.73;;
14681;SDS011;7429;52.498;13.480;2023-06-14T01:30:02;7.53;;;6.77;;
14681;SDS011;7429;52.498;13.480;2023-06-14T01:33:06;7.87;;;7.17;;
14681;SDS011;7429;52.498;13.480;2023-06-14T01:36:10;7.50;;;5.83;;
14681;SDS011;7429;52.498;13.480;2023-06-14T01:39:17;13.17;;;8.93;;
14681;SDS011;7429;52.498;13.480;2023-06-14T01:42:22;8.77;;;8.10;;
14681;SDS011;7429;52.498;13.480;2023-06-14T01:45:26;8.70;;;7.47;;
14681;SDS011;7429;52.498;13.480;2023-06-14T01:48:31;8.13;;;7.50;;
14681;SDS011;7429;52.498;13.480;2023-06-14T01:51:34;8.70;;;8.00;;
14681;SDS011;7429;52.498;13.480;2023-06-14T01:54:39;7.97;;;7.33;;
14681;SDS011;7429;52.498;13.480;2023-06-14T01:57:43;7.40;;;6.80;;
14681;SDS011;7429;52.498;13.480;2023-06-14T02:00:47;8.20;;;7.50;;
14681;SDS011;7429;52.498;13.480;2023-06-14T02:03:50;12.43;;;7.03;;
14681;SDS011;7429;52.498;13.480;2023-06-14T02:06:55;7.60;;;6.87;;
14681;SDS011;7429;52.498;13.480;2023-06-14T02:09:59;9.97;;;7.30;;
14681;SDS011;7429;52.498;13.480;2023-06-14T02:13:02;8.00;;;7.30;;
14681;SDS011;7429;52.498;13.480;2023-06-14T02:16:06;10.17;;;9.30;;
14681;SDS011;7429;52.498;13.480;2023-06-14T02:19:09;9.77;;;8.77;;
14681;SDS011;7429;52.498;13.480;2023-06-14T02:22:15;10.27;;;8.37;;
14681;SDS011;7429;52.498;13.480;2023-06-14T02:25:20;8.67;;;7.87;;
14681;SDS011;7429;52.498;13.480;2023-06-14T02:28:23;15.33;;;14.13;;
14681;SDS011;7429;52.498;13.480;2023-06-14T02:31:26;12.23;;;11.03;;
14681;SDS011;7429;52.498;13.480;2023-06-14T02:34:30;15.27;;;14.17;;
14681;SDS011;7429;52.498;13.480;2023-06-14T02:37:34;16.37;;;15.13;;
14681;SDS011;7429;52.498;13.480;2023-06-14T02:40:38;9.47;;;8.47;;
14681;SDS011;7429;52.498;13.480;2023-06-14T02:43:43;9.43;;;8.63;;
14681;SDS011;7429;52.498;13.480;2023-06-14T02:46:46;9.70;;;8.83;;
14681;SDS011;7429;52.498;13.480;2023-06-14T02:49:51;9.07;;;7.80;;
14681;SDS011;7429;52.498;13.480;2023-06-14T02:52:54;8.37;;;7.47;;
14681;SDS011;7429;52.498;13.480;2023-06-14T02:55:59;10.37;;;8.43;;
14681;SDS011;7429;52.498;13.480;2023-06-14T02:59:05;8.10;;;7.30;;
14681;SDS011;7429;52.498;13.480;2023-06-14T03:02:08;10.43;;;9.43;;
14681;SDS011;7429;52.498;13.480;2023-06-14T03:05:11;13.33;;;9.23;;
14681;SDS011;7429;52.498;13.480;2023-06-14T03:08:16;7.90;;;6.97;;
14681;SDS011;7429;52.498;13.480;2023-06-14T03:11:24;9.80;;;8.83;;
14681;SDS011;7429;52.498;13.480;2023-06-14T03:14:28;9.57;;;8.73;;
14681;SDS011;7429;52.498;13.480;2023-06-14T03:17:32;9.50;;;8.10;;
14681;SDS011;7429;52.498;13.480;2023-06-14T03:20:38;12.10;;;7.90;;
14681;SDS011;7429;52.498;13.480;2023-06-14T03:23:42;12.30;;;7.77;;
14681;SDS011;7429;52.498;13.480;2023-06-14T03:26:47;8.10;;;7.40;;
14681;SDS011;7429;52.498;13.480;2023-06-14T03:29:51;10.40;;;7.50;;
14681;SDS011;7429;52.498;13.480;2023-06-14T03:32:54;9.20;;;7.97;;
14681;SDS011;7429;52.498;13.480;2023-06-14T03:36:01;8.40;;;7.43;;
14681;SDS011;7429;52.498;13.480;2023-06-14T03:39:04;9.20;;;8.03;;
14681;SDS011;7429;52.498;13.480;2023-06-14T03:42:09;10.23;;;8.10;;
14681;SDS011;7429;52.498;13.480;2023-06-14T03:45:13;11.77;;;9.27;;
14681;SDS011;7429;52.498;13.480;2023-06-14T03:48:17;11.10;;;9.13;;
14681;SDS011;7429;52.498;13.480;2023-06-14T03:51:20;11.53;;;9.20;;
14681;SDS011;7429;52.498;13.480;2023-06-14T03:54:24;11.17;;;10.17;;
14681;SDS011;7429;52.498;13.480;2023-06-14T03:57:50;11.10;;;10.10;;
14681;SDS011;7429;52.498;13.480;2023-06-14T04:00:53;15.30;;;14.00;;
14681;SDS011;7429;52.498;13.480;2023-06-14T04:03:58;15.47;;;14.20;;
14681;SDS011;7429;52.498;13.480;2023-06-14T04:07:02;10.63;;;9.73;;
14681;SDS011;7429;52.498;13.480;2023-06-14T04:10:07;11.40;;;9.57;;
14681;SDS011;7429;52.498;13.480;2023-06-14T04:13:12;10.27;;;9.20;;
14681;SDS011;7429;52.498;13.480;2023-06-14T04:16:16;13.20;;;12.20;;
14681;SDS011;7429;52.498;13.480;2023-06-14T04:19:19;10.37;;;8.97;;
14681;SDS011;7429;52.498;13.480;2023-06-14T04:22:22;10.50;;;8.57;;
14681;SDS011;7429;52.498;13.480;2023-06-14T04:25:26;13.77;;;8.97;;
14681;SDS011;7429;52.498;13.480;2023-06-14T04:28:33;10.73;;;9.63;;
14681;SDS011;7429;52.498;13.480;2023-06-14T04:31:43;11.53;;;9.10;;
14681;SDS011;7429;52.498;13.480;2023-06-14T04:34:48;9.27;;;8.37;;
14681;SDS011;7429;52.498;13.480;2023-06-14T04:37:55;10.17;;;9.17;;
14681;SDS011;7429;52.498;13.480;2023-06-14T04:41:00;10.90;;;9.80;;
14681;SDS011;7429;52.498;13.480;2023-06-14T04:44:05;12.53;;;9.67;;
14681;SDS011;7429;52.498;13.480;2023-06-14T04:47:13;10.10;;;9.00;;
14681;SDS011;7429;52.498;13.480;2023-06-14T04:50:17;10.37;;;9.47;;
14681;SDS011;7429;52.498;13.480;2023-06-14T04:53:22;13.77;;;10.17;;
14681;SDS011;7429;52.498;13.480;2023-06-14T04:56:29;10.80;;;9.67;;
14681;SDS011;7429;52.498;13.480;2023-06-14T04:59:34;10.23;;;9.20;;
14681;SDS011;7429;52.498;13.480;2023-06-14T05:02:38;10.32;;;9.32;;
14681;SDS011;7429;52.498;13.480;2023-06-14T05:05:42;10.57;;;9.67;;
14681;SDS011;7429;52.498;13.480;2023-06-14T05:08:47;9.87;;;8.87;;
14681;SDS011;7429;52.498;13.480;2023-06-14T05:11:50;9.60;;;8.70;;
14681;SDS011;7429;52.498;13.480;2023-06-14T05:14:55;11.77;;;10.07;;
14681;SDS011;7429;52.498;13.480;2023-06-14T05:17:59;10.47;;;9.47;;
14681;SDS011;7429;52.498;13.480;2023-06-14T05:21:04;11.60;;;10.30;;
14681;SDS011;7429;52.498;13.480;2023-06-14T05:24:07;13.93;;;12.70;;
14681;SDS011;7429;52.498;13.480;2023-06-14T05:27:10;11.93;;;10.73;;
14681;SDS011;7429;52.498;13.480;2023-06-14T05:30:15;14.53;;;9.27;;
14681;SDS011;7429;52.498;13.480;2023-06-14T05:33:19;11.50;;;10.50;;
14681;SDS011;7429;52.498;13.480;2023-06-14T05:36:22;10.83;;;9.70;;
14681;SDS011;7429;52.498;13.480;2023-06-14T05:39:26;14.43;;;11.70;;
14681;SDS011;7429;52.498;13.480;2023-06-14T05:42:29;13.83;;;10.53;;
14681;SDS011;7429;52.498;13.480;2023-06-14T05:45:34;12.90;;;11.75;;
14681;SDS011;7429;52.498;13.480;2023-06-14T05:48:37;13.67;;;12.50;;
14681;SDS011;7429;52.498;13.480;2023-06-14T05:51:40;10.43;;;9.43;;
14681;SDS011;7429;52.498;13.480;2023-06-14T05:54:43;12.37;;;10.13;;
14681;SDS011;7429;52.498;13.480;2023-06-14T05:57:46;12.10;;;10.75;;
14681;SDS011;7429;52.498;13.480;2023-06-14T06:00:51;14.15;;;10.45;;
14681;SDS011;7429;52.498;13.480;2023-06-14T06:03:55;11.23;;;10.18;;
14681;SDS011;7429;52.498;13.480;2023-06-14T06:06:58;11.98;;;9.85;;
14681;SDS011;7429;52.498;13.480;2023-06-14T06:10:02;14.83;;;11.23;;
14681;SDS011;7429;52.498;13.480;2023-06-14T06:13:06;12.27;;;9.43;;
14681;SDS011;7429;52.498;13.480;2023-06-14T06:16:13;12.20;;;10.43;;
14681;SDS011;7429;52.498;13.480;2023-06-14T06:19:17;16.60;;;10.90;;
14681;SDS011;7429;52.498;13.480;2023-06-14T06:22:20;10.77;;;9.88;;
14681;SDS011;7429;52.498;13.480;2023-06-14T06:25:24;12.50;;;9.93;;
14681;SDS011;7429;52.498;13.480;2023-06-14T06:28:28;11.63;;;10.53;;
14681;SDS011;7429;52.498;13.480;2023-06-14T06:31:32;11.35;;;9.68;;
14681;SDS011;7429;52.498;13.480;2023-06-14T06:34:36;10.47;;;9.20;;
14681;SDS011;7429;52.498;13.480;2023-06-14T06:37:39;11.93;;;10.07;;
14681;SDS011;7429;52.498;13.480;2023-06-14T06:40:44;10.63;;;9.50;;
14681;SDS011;7429;52.498;13.480;2023-06-14T06:43:47;10.70;;;9.60;;
14681;SDS011;7429;52.498;13.480;2023-06-14T06:46:52;22.42;;;9.32;;
14681;SDS011;7429;52.498;13.480;2023-06-14T06:49:55;19.20;;;9.00;;
14681;SDS011;7429;52.498;13.480;2023-06-14T06:52:59;12.55;;;9.38;;
14681;SDS011;7429;52.498;13.480;2023-06-14T06:56:02;11.73;;;8.20;;
14681;SDS011;7429;52.498;13.480;2023-06-14T06:59:06;11.98;;;8.13;;
14681;SDS011;7429;52.498;13.480;2023-06-14T07:02:10;13.27;;;7.90;;
14681;SDS011;7429;52.498;13.480;2023-06-14T07:05:13;9.32;;;8.13;;
14681;SDS011;7429;52.498;13.480;2023-06-14T07:08:17;13.05;;;8.65;;
14681;SDS011;7429;52.498;13.480;2023-06-14T07:11:21;11.98;;;7.68;;
14681;SDS011;7429;52.498;13.480;2023-06-14T07:14:25;11.52;;;10.43;;
14681;SDS011;7429;52.498;13.480;2023-06-14T07:17:29;16.30;;;9.20;;
14681;SDS011;7429;52.498;13.480;2023-06-14T07:20:32;11.48;;;8.40;;
14681;SDS011;7429;52.498;13.480;2023-06-14T07:23:37;12.82;;;9.95;;
14681;SDS011;7429;52.498;13.480;2023-06-14T07:26:41;13.88;;;9.40;;
14681;SDS011;7429;52.498;13.480;2023-06-14T07:29:44;10.30;;;9.27;;
14681;SDS011;7429;52.498;13.480;2023-06-14T07:32:49;17.35;;;8.50;;
14681;SDS011;7429;52.498;13.480;2023-06-14T07:35:52;17.92;;;9.30;;
14681;SDS011;7429;52.498;13.480;2023-06-14T07:38:55;13.18;;;8.80;;
14681;SDS011;7429;52.498;13.480;2023-06-14T07:41:58;19.90;;;8.13;;
14681;SDS011;7429;52.498;13.480;2023-06-14T07:45:02;16.17;;;8.77;;
14681;SDS011;7429;52.498;13.480;2023-06-14T07:48:07;15.95;;;8.05;;
14681;SDS011;7429;52.498;13.480;2023-06-14T07:51:11;11.35;;;10.20;;
14681;SDS011;7429;52.498;13.480;2023-06-14T07:54:17;12.55;;;11.32;;
14681;SDS011;7429;52.498;13.480;2023-06-14T07:57:21;10.27;;;8.73;;
14681;SDS011;7429;52.498;13.480;2023-06-14T08:00:25;14.73;;;8.38;;
14681;SDS011;7429;52.498;13.480;2023-06-14T08:03:30;13.23;;;9.13;;
14681;SDS011;7429;52.498;13.480;2023-06-14T08:06:34;12.63;;;8.05;;
14681;SDS011;7429;52.498;13.480;2023-06-14T08:09:37;10.77;;;8.25;;
14681;SDS011;7429;52.498;13.480;2023-06-14T08:12:40;12.20;;;8.25;;
14681;SDS011;7429;52.498;13.480;2023-06-14T08:15:44;8.25;;;7.45;;
14681;SDS011;7429;52.498;13.480;2023-06-14T08:18:49;7.55;;;6.93;;
14681;SDS011;7429;52.498;13.480;2023-06-14T08:21:52;11.30;;;7.28;;
14681;SDS011;7429;52.498;13.480;2023-06-14T08:24:56;7.53;;;6.80;;
14681;SDS011;7429;52.498;13.480;2023-06-14T08:27:59;11.65;;;6.28;;
14681;SDS011;7429;52.498;13.480;2023-06-14T08:31:03;7.90;;;6.93;;
14681;SDS011;7429;52.498;13.480;2023-06-14T08:34:08;7.57;;;6.70;;
14681;SDS011;7429;52.498;13.480;2023-06-14T08:37:11;16.52;;;7.20;;
14681;SDS011;7429;52.498;13.480;2023-06-14T08:40:19;6.95;;;5.53;;
14681;SDS011;7429;52.498;13.480;2023-06-14T08:43:23;8.93;;;5.50;;
14681;SDS011;7429;52.498;13.480;2023-06-14T08:46:27;7.68;;;6.85;;
14681;SDS011;7429;52.498;13.480;2023-06-14T08:49:33;8.95;;;6.72;;
14681;SDS011;7429;52.498;13.480;2023-06-14T08:52:39;9.45;;;6.30;;
14681;SDS011;7429;52.498;13.480;2023-06-14T08:55:51;6.03;;;5.43;;
14681;SDS011;7429;52.498;13.480;2023-06-14T08:58:55;7.47;;;6.22;;
14681;SDS011;7429;52.498;13.480;2023-06-14T09:02:02;7.43;;;6.82;;
14681;SDS011;7429;52.498;13.480;2023-06-14T09:05:15;7.43;;;5.45;;
14681;SDS011;7429;52.498;13.480;2023-06-14T09:08:19;8.32;;;7.60;;
14681;SDS011;7429;52.498;13.480;2023-06-14T09:11:23;7.03;;;5.68;;
14681;SDS011;7429;52.498;13.480;2023-06-14T09:14:28;6.80;;;5.68;;
14681;SDS011;7429;52.498;13.480;2023-06-14T09:17:32;7.72;;;5.47;;
14681;SDS011;7429;52.498;13.480;2023-06-14T09:20:37;6.07;;;5.65;;
14681;SDS011;7429;52.498;13.480;2023-06-14T09:23:42;8.32;;;5.40;;
14681;SDS011;7429;52.498;13.480;2023-06-14T09:26:48;7.97;;;5.45;;
14681;SDS011;7429;52.498;13.480;2023-06-14T09:29:54;4.80;;;4.40;;
14681;SDS011;7429;52.498;13.480;2023-06-14T09:32:58;6.75;;;5.20;;
14681;SDS011;7429;52.498;13.480;2023-06-14T09:36:04;8.02;;;5.25;;
14681;SDS011;7429;52.498;13.480;2023-06-14T09:39:16;8.27;;;5.28;;
14681;SDS011;7429;52.498;13.480;2023-06-14T09:42:20;10.70;;;5.72;;
14681;SDS011;7429;52.498;13.480;2023-06-14T09:45:27;7.00;;;4.97;;
14681;SDS011;7429;52.498;13.480;2023-06-14T09:48:32;6.72;;;6.10;;
14681;SDS011;7429;52.498;13.480;2023-06-14T09:51:42;6.60;;;5.32;;
14681;SDS011;7429;52.498;13.480;2023-06-14T09:54:47;8.38;;;5.72;;
14681;SDS011;7429;52.498;13.480;2023-06-14T09:57:51;9.10;;;6.55;;
14681;SDS011;7429;52.498;13.480;2023-06-14T10:00:55;7.50;;;5.32;;
14681;SDS011;7429;52.498;13.480;2023-06-14T10:04:01;11.15;;;5.88;;
14681;SDS011;7429;52.498;13.480;2023-06-14T10:07:12;7.95;;;5.57;;
14681;SDS011;7429;52.498;13.480;2023-06-14T10:10:20;7.45;;;5.38;;
14681;SDS011;7429;52.498;13.480;2023-06-14T10:13:26;5.75;;;5.22;;
14681;SDS011;7429;52.498;13.480;2023-06-14T10:16:36;7.35;;;5.85;;
14681;SDS011;7429;52.498;13.480;2023-06-14T10:19:48;9.05;;;5.55;;
14681;SDS011;7429;52.498;13.480;2023-06-14T10:23:00;5.38;;;4.55;;
14681;SDS011;7429;52.498;13.480;2023-06-14T10:26:17;6.20;;;4.72;;
14681;SDS011;7429;52.498;13.480;2023-06-14T10:29:23;12.38;;;6.43;;
14681;SDS011;7429;52.498;13.480;2023-06-14T10:32:27;7.82;;;5.57;;
14681;SDS011;7429;52.498;13.480;2023-06-14T10:35:31;7.32;;;5.28;;
14681;SDS011;7429;52.498;13.480;2023-06-14T10:38:38;7.85;;;5.95;;
14681;SDS011;7429;52.498;13.480;2023-06-14T10:41:41;9.35;;;5.70;;
14681;SDS011;7429;52.498;13.480;2023-06-14T10:44:53;7.03;;;5.88;;
14681;SDS011;7429;52.498;13.480;2023-06-14T10:47:57;9.98;;;5.72;;
14681;SDS011;7429;52.498;13.480;2023-06-14T10:51:04;7.40;;;6.25;;
14681;SDS011;7429;52.498;13.480;2023-06-14T10:54:09;7.15;;;5.85;;
14681;SDS011;7429;52.498;13.480;2023-06-14T10:57:15;9.82;;;6.57;;
14681;SDS011;7429;52.498;13.480;2023-06-14T11:00:18;7.60;;;5.85;;
14681;SDS011;7429;52.498;13.480;2023-06-14T11:03:50;5.80;;;5.07;;
14681;SDS011;7429;52.498;13.480;2023-06-14T11:06:54;7.72;;;4.50;;
14681;SDS011;7429;52.498;13.480;2023-06-14T11:10:32;6.88;;;5.70;;
14681;SDS011;7429;52.498;13.480;2023-06-14T11:13:41;12.95;;;6.32;;
14681;SDS011;7429;52.498;13.480;2023-06-14T11:16:49;8.00;;;5.05;;
14681;SDS011;7429;52.498;13.480;2023-06-14T11:20:06;6.25;;;5.20;;
14681;SDS011;7429;52.498;13.480;2023-06-14T11:23:10;6.55;;;5.43;;
14681;SDS011;7429;52.498;13.480;2023-06-14T11:26:15;7.35;;;5.20;;
14681;SDS011;7429;52.498;13.480;2023-06-14T11:29:19;6.05;;;5.45;;
14681;SDS011;7429;52.498;13.480;2023-06-14T11:32:23;8.35;;;5.38;;
14681;SDS011;7429;52.498;13.480;2023-06-14T11:35:26;8.43;;;5.05;;
14681;SDS011;7429;52.498;13.480;2023-06-14T11:38:30;6.60;;;4.85;;
14681;SDS011;7429;52.498;13.480;2023-06-14T11:41:35;8.80;;;5.03;;
14681;SDS011;7429;52.498;13.480;2023-06-14T11:44:40;7.13;;;6.38;;
14681;SDS011;7429;52.498;13.480;2023-06-14T11:47:43;10.18;;;5.20;;
14681;SDS011;7429;52.498;13.480;2023-06-14T11:50:49;7.82;;;5.88;;
14681;SDS011;7429;52.498;13.480;2023-06-14T11:53:53;9.18;;;5.68;;
14681;SDS011;7429;52.498;13.480;2023-06-14T11:56:58;8.38;;;5.82;;
14681;SDS011;7429;52.498;13.480;2023-06-14T12:00:03;7.95;;;6.10;;
14681;SDS011;7429;52.498;13.480;2023-06-14T12:03:12;5.88;;;5.25;;
14681;SDS011;7429;52.498;13.480;2023-06-14T12:06:15;7.97;;;6.10;;
14681;SDS011;7429;52.498;13.480;2023-06-14T12:09:29;7.07;;;4.55;;
14681;SDS011;7429;52.498;13.480;2023-06-14T12:12:34;7.47;;;4.68;;
14681;SDS011;7429;52.498;13.480;2023-06-14T12:15:39;9.27;;;4.72;;
14681;SDS011;7429;52.498;13.480;2023-06-14T12:18:42;6.18;;;4.30;;
14681;SDS011;7429;52.498;13.480;2023-06-14T12:21:47;6.15;;;4.72;;
14681;SDS011;7429;52.498;13.480;2023-06-14T12:24:52;8.85;;;4.22;;
14681;SDS011;7429;52.498;13.480;2023-06-14T12:28:00;9.43;;;4.82;;
14681;SDS011;7429;52.498;13.480;2023-06-14T12:31:07;5.50;;;4.30;;
14681;SDS011;7429;52.498;13.480;2023-06-14T12:34:11;8.82;;;4.45;;
14681;SDS011;7429;52.498;13.480;2023-06-14T12:37:14;5.97;;;4.03;;
14681;SDS011;7429;52.498;13.480;2023-06-14T12:40:17;6.97;;;5.05;;
14681;SDS011;7429;52.498;13.480;2023-06-14T12:43:21;4.90;;;4.13;;
14681;SDS011;7429;52.498;13.480;2023-06-14T12:46:25;11.30;;;4.68;;
14681;SDS011;7429;52.498;13.480;2023-06-14T12:49:28;8.05;;;3.95;;
14681;SDS011;7429;52.498;13.480;2023-06-14T12:52:31;3.92;;;3.63;;
14681;SDS011;7429;52.498;13.480;2023-06-14T12:55:37;9.18;;;3.92;;
14681;SDS011;7429;52.498;13.480;2023-06-14T12:58:41;13.52;;;4.60;;
14681;SDS011;7429;52.498;13.480;2023-06-14T13:01:45;8.73;;;4.57;;
14681;SDS011;7429;52.498;13.480;2023-06-14T13:04:51;8.10;;;4.28;;
14681;SDS011;7429;52.498;13.480;2023-06-14T13:07:54;10.85;;;4.28;;
14681;SDS011;7429;52.498;13.480;2023-06-14T13:10:57;5.65;;;4.13;;
14681;SDS011;7429;52.498;13.480;2023-06-14T13:14:02;9.45;;;4.40;;
14681;SDS011;7429;52.498;13.480;2023-06-14T13:17:26;8.93;;;4.47;;
14681;SDS011;7429;52.498;13.480;2023-06-14T13:20:29;7.28;;;3.83;;
14681;SDS011;7429;52.498;13.480;2023-06-14T13:23:32;5.93;;;4.63;;
14681;SDS011;7429;52.498;13.480;2023-06-14T13:26:36;10.55;;;4.53;;
14681;SDS011;7429;52.498;13.480;2023-06-14T13:29:40;7.38;;;3.90;;
14681;SDS011;7429;52.498;13.480;2023-06-14T13:32:43;6.07;;;3.53;;
14681;SDS011;7429;52.498;13.480;2023-06-14T13:35:51;8.05;;;3.83;;
14681;SDS011;7429;52.498;13.480;2023-06-14T13:38:54;7.25;;;3.90;;
14681;SDS011;7429;52.498;13.480;2023-06-14T13:41:58;7.03;;;3.90;;
14681;SDS011;7429;52.498;13.480;2023-06-14T13:45:02;9.65;;;3.92;;
14681;SDS011;7429;52.498;13.480;2023-06-14T13:48:06;5.75;;;4.40;;
14681;SDS011;7429;52.498;13.480;2023-06-14T13:51:09;7.47;;;3.92;;
14681;SDS011;7429;52.498;13.480;2023-06-14T13:54:13;6.63;;;3.85;;
14681;SDS011;7429;52.498;13.480;2023-06-14T13:57:17;6.43;;;4.18;;
14681;SDS011;7429;52.498;13.480;2023-06-14T14:00:24;8.07;;;4.30;;
14681;SDS011;7429;52.498;13.480;2023-06-14T14:03:27;9.98;;;4.57;;
14681;SDS011;7429;52.498;13.480;2023-06-14T14:06:30;9.27;;;4.47;;
14681;SDS011;7429;52.498;13.480;2023-06-14T14:09:34;4.55;;;3.67;;
14681;SDS011;7429;52.498;13.480;2023-06-14T14:12:38;6.15;;;4.10;;
14681;SDS011;7429;52.498;13.480;2023-06-14T14:15:43;5.60;;;3.90;;
14681;SDS011;7429;52.498;13.480;2023-06-14T14:18:46;5.43;;;4.15;;
14681;SDS011;7429;52.498;13.480;2023-06-14T14:21:50;7.10;;;4.00;;
14681;SDS011;7429;52.498;13.480;2023-06-14T14:24:55;5.50;;;3.38;;
14681;SDS011;7429;52.498;13.480;2023-06-14T14:27:58;5.75;;;4.10;;
14681;SDS011;7429;52.498;13.480;2023-06-14T14:31:03;6.45;;;3.40;;
14681;SDS011;7429;52.498;13.480;2023-06-14T14:34:06;5.88;;;3.83;;
14681;SDS011;7429;52.498;13.480;2023-06-14T14:37:10;8.68;;;4.20;;
14681;SDS011;7429;52.498;13.480;2023-06-14T14:40:14;4.88;;;3.45;;
14681;SDS011;7429;52.498;13.480;2023-06-14T14:43:18;7.15;;;4.72;;
14681;SDS011;7429;52.498;13.480;2023-06-14T14:46:22;10.48;;;3.92;;
14681;SDS011;7429;52.498;13.480;2023-06-14T14:49:25;5.22;;;3.80;;
14681;SDS011;7429;52.498;13.480;2023-06-14T14:52:28;8.98;;;4.25;;
14681;SDS011;7429;52.498;13.480;2023-06-14T14:55:31;6.20;;;3.97;;
14681;SDS011;7429;52.498;13.480;2023-06-14T14:58:36;5.00;;;3.92;;
14681;SDS011;7429;52.498;13.480;2023-06-14T15:01:40;8.80;;;3.78;;
14681;SDS011;7429;52.498;13.480;2023-06-14T15:04:44;7.68;;;3.58;;
14681;SDS011;7429;52.498;13.480;2023-06-14T15:07:47;4.63;;;4.10;;
14681;SDS011;7429;52.498;13.480;2023-06-14T15:10:50;10.75;;;4.65;;
14681;SDS011;7429;52.498;13.480;2023-06-14T15:13:53;6.90;;;3.72;;
14681;SDS011;7429;52.498;13.480;2023-06-14T15:16:58;7.22;;;4.22;;
14681;SDS011;7429;52.498;13.480;2023-06-14T15:20:03;8.18;;;4.72;;
14681;SDS011;7429;52.498;13.480;2023-06-14T15:23:08;6.30;;;5.20;;
14681;SDS011;7429;52.498;13.480;2023-06-14T15:26:11;4.90;;;4.47;;
14681;SDS011;7429;52.498;13.480;2023-06-14T15:29:14;6.80;;;4.20;;
14681;SDS011;7429;52.498;13.480;2023-06-14T15:32:19;8.95;;;5.25;;
14681;SDS011;7429;52.498;13.480;2023-06-14T15:35:22;4.93;;;4.53;;
14681;SDS011;7429;52.498;13.480;2023-06-14T15:38:25;9.77;;;5.53;;
14681;SDS011;7429;52.498;13.480;2023-06-14T15:41:28;8.35;;;4.85;;
14681;SDS011;7429;52.498;13.480;2023-06-14T15:44:32;10.05;;;4.90;;
14681;SDS011;7429;52.498;13.480;2023-06-14T15:47:36;8.85;;;4.82;;
14681;SDS011;7429;52.498;13.480;2023-06-14T15:50:40;8.32;;;4.93;;
14681;SDS011;7429;52.498;13.480;2023-06-14T15:53:44;10.75;;;4.88;;
14681;SDS011;7429;52.498;13.480;2023-06-14T15:56:47;6.35;;;5.60;;
14681;SDS011;7429;52.498;13.480;2023-06-14T15:59:50;9.55;;;4.32;;
14681;SDS011;7429;52.498;13.480;2023-06-14T16:02:54;8.23;;;4.63;;
14681;SDS011;7429;52.498;13.480;2023-06-14T16:05:58;7.32;;;4.13;;
14681;SDS011;7429;52.498;13.480;2023-06-14T16:09:01;9.25;;;4.53;;
14681;SDS011;7429;52.498;13.480;2023-06-14T16:12:06;7.30;;;4.97;;
14681;SDS011;7429;52.498;13.480;2023-06-14T16:15:11;6.88;;;5.22;;
14681;SDS011;7429;52.498;13.480;2023-06-14T16:18:15;7.00;;;4.80;;
14681;SDS011;7429;52.498;13.480;2023-06-14T16:21:18;5.75;;;4.82;;
14681;SDS011;7429;52.498;13.480;2023-06-14T16:24:21;7.57;;;5.70;;
14681;SDS011;7429;52.498;13.480;2023-06-14T16:27:25;5.13;;;4.22;;
14681;SDS011;7429;52.498;13.480;2023-06-14T16:30:28;7.63;;;5.90;;
14681;SDS011;7429;52.498;13.480;2023-06-14T16:33:33;6.97;;;5.70;;
14681;SDS011;7429;52.498;13.480;2023-06-14T16:36:36;9.30;;;8.20;;
14681;SDS011;7429;52.498;13.480;2023-06-14T16:39:40;8.32;;;4.72;;
14681;SDS011;7429;52.498;13.480;2023-06-14T16:42:43;6.82;;;6.15;;
14681;SDS011;7429;52.498;13.480;2023-06-14T16:45:46;8.40;;;7.70;;
14681;SDS011;7429;52.498;13.480;2023-06-14T16:48:51;7.00;;;6.30;;
14681;SDS011;7429;52.498;13.480;2023-06-14T16:51:54;14.23;;;5.82;;
14681;SDS011;7429;52.498;13.480;2023-06-14T16:55:00;8.10;;;6.32;;
14681;SDS011;7429;52.498;13.480;2023-06-14T16:58:04;6.45;;;5.35;;
14681;SDS011;7429;52.498;13.480;2023-06-14T17:01:09;10.05;;;4.57;;
14681;SDS011;7429;52.498;13.480;2023-06-14T17:04:25;9.23;;;6.47;;
14681;SDS011;7429;52.498;13.480;2023-06-14T17:07:29;8.32;;;5.03;;
14681;SDS011;7429;52.498;13.480;2023-06-14T17:10:33;8.38;;;4.78;;
14681;SDS011;7429;52.498;13.480;2023-06-14T17:13:36;7.45;;;5.10;;
14681;SDS011;7429;52.498;13.480;2023-06-14T17:16:40;8.50;;;5.68;;
14681;SDS011;7429;52.498;13.480;2023-06-14T17:19:45;5.68;;;5.07;;
14681;SDS011;7429;52.498;13.480;2023-06-14T17:22:49;9.00;;;5.05;;
14681;SDS011;7429;52.498;13.480;2023-06-14T17:25:52;7.32;;;4.75;;
14681;SDS011;7429;52.498;13.480;2023-06-14T17:28:56;7.40;;;4.57;;
14681;SDS011;7429;52.498;13.480;2023-06-14T17:31:59;9.63;;;5.30;;
14681;SDS011;7429;52.498;13.480;2023-06-14T17:35:04;6.47;;;5.40;;
14681;SDS011;7429;52.498;13.480;2023-06-14T17:38:08;10.75;;;5.00;;
14681;SDS011;7429;52.498;13.480;2023-06-14T17:41:12;5.97;;;4.82;;
14681;SDS011;7429;52.498;13.480;2023-06-14T17:44:20;12.35;;;5.55;;
14681;SDS011;7429;52.498;13.480;2023-06-14T17:47:23;5.40;;;4.90;;
14681;SDS011;7429;52.498;13.480;2023-06-14T17:50:31;7.40;;;6.45;;
14681;SDS011;7429;52.498;13.480;2023-06-14T17:53:37;7.45;;;5.07;;
14681;SDS011;7429;52.498;13.480;2023-06-14T17:56:40;7.45;;;5.03;;
14681;SDS011;7429;52.498;13.480;2023-06-14T17:59:43;7.90;;;4.70;;
14681;SDS011;7429;52.498;13.480;2023-06-14T18:02:47;11.60;;;5.60;;
14681;SDS011;7429;52.498;13.480;2023-06-14T18:05:52;9.80;;;5.57;;
14681;SDS011;7429;52.498;13.480;2023-06-14T18:08:55;7.93;;;4.75;;
14681;SDS011;7429;52.498;13.480;2023-06-14T18:11:58;7.65;;;5.03;;
14681;SDS011;7429;52.498;13.480;2023-06-14T18:15:01;11.82;;;5.22;;
14681;SDS011;7429;52.498;13.480;2023-06-14T18:18:07;7.47;;;4.50;;
14681;SDS011;7429;52.498;13.480;2023-06-14T18:21:11;6.47;;;4.20;;
14681;SDS011;7429;52.498;13.480;2023-06-14T18:24:15;7.20;;;5.07;;
14681;SDS011;7429;52.498;13.480;2023-06-14T18:27:20;8.27;;;5.20;;